Time;durP1;ratioP1;P1;durP2;ratioP2;P2;SDS_P1;SDS_P2;PMS_P1;PMS_P2;Temp;Humidity;BMP_temperature;BMP_pressure;BME280_temperature;BME280_humidity;BME280_pressure;Samples;Min_cycle;Max_cycle;Signal;HPM_P1;HPM_P2
2023/10/21 00:01:12;;;;;;;;;;;11.50;58.10;;;10.18;60.65;98879.84;12245100;19;20260;-83
2023/10/21 00:05:14;;;;;;;;;;;11.40;58.20;;;10.00;60.59;98834.44;12249650;19;19915;-84
2023/10/21 00:09:16;;;;;;;;;;;11.50;58.50;;;10.14;60.36;98881.03;12246408;19;19970;-83
2023/10/21 00:13:17;;;;;;;;;;;11.50;58.30;;;10.18;60.45;98895.50;12245777;19;19923;-84
2023/10/21 00:17:19;;;;;;;;;;;11.50;58.50;;;10.07;60.47;98877.31;12248467;19;20287;-84
2023/10/21 00:21:21;;;;;;;;;;;11.50;58.30;;;10.18;60.50;98903.31;12246346;19;19930;-84
2023/10/21 00:25:23;;;;;;;;;;;11.50;58.60;;;10.17;60.71;98878.16;12245979;19;19974;-84
2023/10/21 00:29:25;;;;;;;;;;;11.50;58.50;;;10.22;60.44;98875.19;12242681;19;19946;-84
2023/10/21 00:33:27;;;;;;;;;;;11.40;58.50;;;10.26;60.60;98888.78;12246694;19;19919;-83
2023/10/21 00:37:28;;;;;;;;;;;11.50;58.60;;;10.23;60.51;98897.69;12244495;19;19951;-83
2023/10/21 00:41:30;;;;;;;;;;;11.50;58.30;;;10.20;60.63;98859.66;12246182;19;19911;-83
2023/10/21 00:45:31;;;;;;;;;;;11.50;58.50;;;9.99;60.56;98827.56;12245608;19;19927;-83
2023/10/21 00:49:33;;;;;;;;;;;11.50;58.20;;;10.22;60.53;98880.41;12245053;19;20254;-84
2023/10/21 00:53:35;;;;;;;;;;;11.60;58.70;;;10.16;60.53;98894.78;12245072;19;19919;-83
2023/10/21 00:57:37;;;;;;;;;;;11.60;58.30;;;10.31;60.45;98894.50;12243968;19;19927;-84
2023/10/21 01:01:38;;;;;;;;;;;11.60;58.20;;;10.30;60.60;98887.63;12245772;19;20006;-84
2023/10/21 01:05:40;;;;;;;;;;;11.70;58.30;;;10.33;60.58;98889.97;12243366;19;19919;-83
2023/10/21 01:09:41;;;;;;;;;;;11.70;58.20;;;10.43;60.59;98905.69;12241850;19;19950;-83
2023/10/21 01:13:45;;;;;;;;;;;11.70;58.20;;;10.45;60.56;98922.03;12244001;19;19921;-83
2023/10/21 01:17:50;;;;;;;;;;;11.70;58.10;;;10.38;60.53;98893.03;12242187;19;19919;-84
2023/10/21 01:21:52;;;;;;;;;;;11.70;58.10;;;10.48;60.62;98916.56;12243616;19;19929;-84
2023/10/21 01:25:53;;;;;;;;;;;11.70;58.20;;;10.40;60.63;98906.78;12245917;19;19932;-84
2023/10/21 01:29:54;;;;;;;;;;;11.70;58.10;;;10.46;60.59;98915.88;12251924;19;19911;-83
2023/10/21 01:33:56;;;;;;;;;;;11.80;58.10;;;10.44;60.59;98910.78;12252168;19;19974;-84
2023/10/21 01:37:57;;;;;;;;;;;11.80;58.20;;;10.53;60.60;98915.25;12254220;19;20349;-84
2023/10/21 01:41:59;;;;;;;;;;;11.80;58.40;;;10.55;60.61;98905.47;12256920;19;19918;-83
2023/10/21 01:46:05;;;;;;;;;;;11.80;58.20;;;10.55;60.45;98904.66;12255314;19;19975;-84
2023/10/21 01:50:09;;;;;;;;;;;11.80;58.10;;;10.61;60.45;98911.94;12252189;19;19910;-83
2023/10/21 01:54:10;;;;;;;;;;;11.80;58.10;;;10.54;60.57;98910.84;12255087;19;19922;-84
2023/10/21 01:58:12;;;;;;;;;;;11.80;58.00;;;10.58;60.67;98907.81;12254817;19;19911;-84
2023/10/21 02:02:14;;;;;;;;;;;11.80;58.20;;;10.65;60.62;98918.59;12254161;19;19931;-83
2023/10/21 02:06:16;;;;;;;;;;;11.90;58.20;;;10.54;60.58;98906.44;12254461;19;19919;-84
2023/10/21 02:10:17;;;;;;;;;;;11.90;58.20;;;10.67;60.65;98923.69;12250874;19;19946;-83
2023/10/21 02:14:19;;;;;;;;;;;11.90;58.10;;;10.56;60.48;98921.97;12253872;19;19918;-83
2023/10/21 02:18:23;;;;;;;;;;;11.90;58.00;;;10.40;60.63;98898.94;12252121;19;20671;-84
2023/10/21 02:22:25;;;;;;;;;;;11.90;58.00;;;10.63;60.50;98942.19;12253683;19;19915;-83
2023/10/21 02:26:26;;;;;;;;;;;11.90;58.00;;;10.48;60.54;98914.78;12253516;19;19961;-83
2023/10/21 02:30:29;;;;;;;;;;;11.90;58.00;;;10.66;60.51;98948.94;12251643;19;19911;-83
2023/10/21 02:34:30;;;;;;;;;;;11.90;58.00;;;10.65;60.78;98939.47;12253398;19;19926;-84
2023/10/21 02:38:32;;;;;;;;;;;12.00;58.30;;;10.72;60.49;98955.44;12251853;19;20365;-84
2023/10/21 02:42:34;;;;;;;;;;;12.00;58.10;;;10.52;60.72;98926.59;12254037;19;19919;-83
2023/10/21 02:46:36;;;;;;;;;;;11.90;58.00;;;10.72;60.55;98965.88;12250881;19;19987;-84
2023/10/21 02:50:38;;;;;;;;;;;12.00;58.30;;;10.66;60.65;98972.44;12247583;19;19925;-83
2023/10/21 02:54:39;;;;;;;;;;;11.90;58.20;;;10.72;60.52;98995.44;12249981;19;20270;-83
2023/10/21 02:58:41;;;;;;;;;;;12.00;58.20;;;10.61;60.65;98980.66;12249005;19;19991;-83
2023/10/21 03:02:44;;;;;;;;;;;11.90;58.10;;;10.68;60.60;98993.19;12249696;19;20375;-83
2023/10/21 03:06:47;;;;;;;;;;;11.90;58.10;;;10.71;60.76;98985.94;12249620;19;19954;-84
2023/10/21 03:10:48;;;;;;;;;;;11.90;58.20;;;10.62;60.59;98966.66;12246831;19;20235;-83
2023/10/21 03:14:50;;;;;;;;;;;12.00;58.20;;;10.74;60.62;98995.28;12251728;19;19915;-83
2023/10/21 03:18:53;;;;;;;;;;;12.00;58.20;;;10.57;60.73;98978.44;12249592;19;20318;-83
2023/10/21 03:22:54;;;;;;;;;;;11.90;58.10;;;10.74;60.58;99005.72;12248826;19;19930;-83
2023/10/21 03:26:56;;;;;;;;;;;12.00;58.20;;;10.54;60.61;98981.31;12248544;19;20358;-84
2023/10/21 03:30:59;;;;;;;;;;;12.20;58.20;;;10.79;60.65;99008.78;12245629;19;19925;-84
2023/10/21 03:35:00;;;;;;;;;;;12.00;58.20;;;10.75;60.71;99015.25;12248004;19;19922;-84
2023/10/21 03:39:02;;;;;;;;;;;12.00;58.10;;;10.65;60.58;99007.34;12249121;19;19962;-83
2023/10/21 03:43:04;;;;;;;;;;;12.00;58.30;;;10.74;60.67;99013.56;12245366;19;20305;-83
2023/10/21 03:47:06;;;;;;;;;;;12.00;58.40;;;10.81;60.80;99017.34;12248354;19;20253;-83
2023/10/21 03:51:11;;;;;;;;;;;12.00;58.30;;;10.75;60.64;99002.19;12244106;19;19927;-83
2023/10/21 03:55:12;;;;;;;;;;;12.00;58.30;;;10.83;60.64;99002.38;12247486;19;19919;-84
2023/10/21 03:59:14;;;;;;;;;;;12.00;58.50;;;10.60;60.67;98963.34;12245751;19;19918;-84
2023/10/21 04:03:16;;;;;;;;;;;12.00;58.80;;;10.84;60.57;99012.66;12248774;19;19921;-83
2023/10/21 04:07:18;;;;;;;;;;;12.00;58.30;;;10.75;60.76;98991.75;12248789;19;19919;-84
2023/10/21 04:11:21;;;;;;;;;;;12.10;58.20;;;10.83;60.69;99007.59;12243760;19;19933;-83
2023/10/21 04:15:22;;;;;;;;;;;12.10;58.20;;;10.76;60.66;98990.78;12245990;19;19932;-83
2023/10/21 04:19:24;;;;;;;;;;;12.10;58.30;;;10.83;60.77;99004.97;12245494;19;19914;-84
2023/10/21 04:23:25;;;;;;;;;;;12.10;58.30;;;10.78;60.70;98999.31;12246279;19;19917;-83
2023/10/21 04:27:27;;;;;;;;;;;12.10;58.30;;;10.85;60.62;99011.72;12247157;19;19940;-83
2023/10/21 04:31:34;;;;;;;;;;;12.10;58.10;;;10.88;60.57;99026.28;12244852;19;19915;-83
2023/10/21 04:35:35;;;;;;;;;;;12.10;58.10;;;10.62;60.76;98986.72;12247584;19;19926;-83
2023/10/21 04:39:37;;;;;;;;;;;12.10;58.20;;;10.78;60.71;99014.97;12246015;19;19911;-83
2023/10/21 04:43:39;;;;;;;;;;;12.10;58.40;;;10.86;60.88;99028.22;12247156;19;20261;-84
2023/10/21 04:47:40;;;;;;;;;;;12.10;58.10;;;10.76;60.63;99015.09;12247011;19;19915;-83
2023/10/21 04:51:42;;;;;;;;;;;12.10;58.40;;;10.80;60.79;99011.28;12244070;19;19928;-83
2023/10/21 04:55:44;;;;;;;;;;;12.10;58.40;;;10.77;60.93;99013.31;12245410;19;19932;-84
2023/10/21 04:59:46;;;;;;;;;;;12.10;58.40;;;10.88;60.78;99039.34;12244413;19;19937;-83
2023/10/21 05:03:48;;;;;;;;;;;12.10;58.50;;;10.86;60.84;99030.84;12241391;19;19922;-83
2023/10/21 05:07:50;;;;;;;;;;;12.10;58.30;;;10.66;60.78;99010.75;12244982;19;19933;-84
2023/10/21 05:11:51;;;;;;;;;;;12.10;58.40;;;10.90;60.78;99049.69;12240500;19;19918;-84
2023/10/21 05:15:53;;;;;;;;;;;12.10;58.40;;;10.89;60.77;99050.63;12244245;19;19992;-84
2023/10/21 05:19:55;;;;;;;;;;;12.10;58.60;;;10.91;60.73;99044.34;12241763;19;19929;-83
2023/10/21 05:23:58;;;;;;;;;;;12.10;58.70;;;10.75;60.83;99023.91;12244216;19;19938;-83
2023/10/21 05:27:59;;;;;;;;;;;12.20;58.50;;;10.92;60.76;99053.00;12242596;19;20341;-83
2023/10/21 05:32:01;;;;;;;;;;;12.20;58.50;;;10.83;60.88;99041.53;12240625;19;20629;-84
2023/10/21 05:36:03;;;;;;;;;;;12.20;58.70;;;10.83;60.76;99042.34;12242901;19;19982;-83
2023/10/21 05:40:05;;;;;;;;;;;12.20;58.70;;;10.92;60.75;99056.44;12242194;19;20251;-83
2023/10/21 05:44:10;;;;;;;;;;;12.20;58.70;;;10.95;60.80;99057.97;12244297;19;20254;-84
2023/10/21 05:48:12;;;;;;;;;;;12.20;58.70;;;10.93;60.83;99067.69;12244181;19;19915;-85
2023/10/21 05:52:14;;;;;;;;;;;12.20;58.60;;;10.91;60.81;99064.38;12244062;19;20271;-84
2023/10/21 05:56:16;;;;;;;;;;;12.20;58.50;;;10.94;60.84;99064.97;12242136;19;19922;-83
2023/10/21 06:00:18;;;;;;;;;;;12.20;58.40;;;10.98;61.00;99068.16;12239509;19;20269;-84
2023/10/21 06:04:20;;;;;;;;;;;12.20;59.30;;;10.96;60.87;99083.94;12238031;19;19922;-84
2023/10/21 06:08:22;;;;;;;;;;;12.20;58.90;;;10.96;60.94;99094.38;12243113;19;19985;-86
2023/10/21 06:12:24;;;;;;;;;;;12.20;58.90;;;10.91;60.95;99090.50;12245925;19;19915;-84
2023/10/21 06:16:25;;;;;;;;;;;12.20;58.60;;;10.98;60.93;99118.59;12252463;19;19919;-84
2023/10/21 06:20:27;;;;;;;;;;;12.20;58.60;;;11.02;60.99;99121.78;12251897;19;19918;-84
2023/10/21 06:24:29;;;;;;;;;;;12.20;58.80;;;10.99;60.96;99129.84;12253393;19;19922;-84
2023/10/21 06:28:31;;;;;;;;;;;12.30;59.00;;;10.97;61.08;99118.72;12253156;19;19907;-85
2023/10/21 06:32:32;;;;;;;;;;;12.20;58.70;;;11.03;60.93;99134.72;12255218;19;19974;-86
2023/10/21 06:36:34;;;;;;;;;;;12.30;58.60;;;11.01;61.00;99128.78;12255537;19;20325;-85
2023/10/21 06:40:36;;;;;;;;;;;12.30;58.70;;;11.02;60.85;99133.06;12251624;19;19922;-85
2023/10/21 06:44:37;;;;;;;;;;;12.30;58.60;;;10.96;60.92;99123.09;12252876;19;19951;-86
2023/10/21 06:48:39;;;;;;;;;;;12.30;58.80;;;10.99;60.82;99141.16;12250174;19;19915;-85
2023/10/21 06:52:41;;;;;;;;;;;12.30;58.80;;;11.07;60.97;99149.19;12245409;19;19926;-85
2023/10/21 06:56:44;;;;;;;;;;;12.30;58.80;;;11.07;61.04;99146.56;12252929;19;19926;-84
2023/10/21 07:00:46;;;;;;;;;;;12.30;59.00;;;10.89;61.06;99118.53;12247086;19;19923;-85
2023/10/21 07:04:48;;;;;;;;;;;12.30;58.90;;;10.96;61.06;99141.38;12251023;19;19925;-84
2023/10/21 07:08:50;;;;;;;;;;;12.30;59.00;;;11.13;61.06;99163.53;12249381;19;20266;-84
2023/10/21 07:12:51;;;;;;;;;;;12.30;59.10;;;11.13;61.04;99160.09;12248900;19;19940;-84
2023/10/21 07:16:53;;;;;;;;;;;12.50;59.20;;;11.15;60.93;99164.22;12251526;19;19982;-84
2023/10/21 07:20:57;;;;;;;;;;;12.40;59.30;;;11.16;60.94;99178.94;12248985;19;19936;-84
2023/10/21 07:25:00;;;;;;;;;;;12.40;59.30;;;11.17;61.05;99179.78;12246806;19;20366;-84
2023/10/21 07:29:02;;;;;;;;;;;12.40;59.10;;;11.26;61.16;99168.53;12250039;19;19919;-85
2023/10/21 07:33:04;;;;;;;;;;;12.40;59.40;;;11.23;61.08;99171.41;12250832;19;19922;-84
2023/10/21 07:37:05;;;;;;;;;;;12.70;59.40;;;11.28;60.89;99182.31;12249328;19;19939;-84
2023/10/21 07:41:11;;;;;;;;;;;12.50;59.30;;;11.31;61.24;99189.91;12239886;19;19923;-84
2023/10/21 07:45:14;;;;;;;;;;;12.50;59.20;;;11.40;61.20;99210.06;12250166;19;19923;-85
2023/10/21 07:49:16;;;;;;;;;;;12.60;59.40;;;11.42;61.19;99202.94;12249797;19;19919;-84
2023/10/21 07:53:18;;;;;;;;;;;12.70;59.30;;;11.46;61.05;99209.53;12254509;19;19922;-84
2023/10/21 07:57:19;;;;;;;;;;;12.70;59.40;;;11.46;61.18;99206.94;12240032;19;19995;-84
2023/10/21 08:01:20;;;;;;;;;;;12.80;59.30;;;11.57;61.20;99213.06;12235292;19;19947;-84
2023/10/21 08:05:24;;;;;;;;;;;12.80;59.20;;;11.62;61.20;99226.56;12246134;19;19922;-84
2023/10/21 08:09:26;;;;;;;;;;;12.80;59.00;;;11.59;61.17;99213.75;12240878;19;20354;-84
2023/10/21 08:13:28;;;;;;;;;;;12.80;59.20;;;11.59;61.17;99221.59;12245680;19;19944;-83
2023/10/21 08:17:30;;;;;;;;;;;12.90;59.20;;;11.70;61.29;99234.59;12244478;19;20356;-84
2023/10/21 08:21:34;;;;;;;;;;;12.90;59.20;;;11.70;61.20;99217.13;12244924;19;19915;-84
2023/10/21 08:25:36;;;;;;;;;;;13.00;59.20;;;11.78;61.39;99228.72;12242441;19;19955;-84
2023/10/21 08:29:37;;;;;;;;;;;13.10;59.30;;;11.90;61.47;99240.78;12243254;19;19932;-83
2023/10/21 08:33:39;;;;;;;;;;;13.10;59.30;;;11.81;61.38;99221.44;12241390;19;20361;-84
2023/10/21 08:37:40;;;;;;;;;;;13.20;59.40;;;11.95;61.43;99228.16;12242987;19;19923;-84
2023/10/21 08:41:42;;;;;;;;;;;13.30;59.50;;;12.15;61.51;99250.84;12245786;19;20559;-84
2023/10/21 08:45:44;;;;;;;;;;;13.40;59.90;;;12.27;61.47;99264.66;12254933;19;19918;-83
2023/10/21 08:49:46;;;;;;;;;;;13.50;59.80;;;12.29;61.45;99249.66;12250119;19;20254;-83
2023/10/21 08:53:52;;;;;;;;;;;13.60;60.30;;;12.20;61.48;99226.88;12248759;19;19927;-83
2023/10/21 08:57:54;;;;;;;;;;;13.70;61.30;;;12.56;61.43;99279.66;12249315;19;19918;-83
2023/10/21 09:01:56;;;;;;;;;;;13.80;61.80;;;12.67;61.47;99276.91;12250242;19;19927;-83
2023/10/21 09:06:06;;;;;;;;;;;13.90;60.80;;;12.65;61.45;99260.50;12250857;19;19914;-83
2023/10/21 09:10:08;;;;;;;;;;;14.00;61.80;;;12.83;61.55;99282.47;12260868;19;20330;-82
2023/10/21 09:14:09;;;;;;;;;;;14.10;61.80;;;12.89;61.62;99278.47;12263412;19;19922;-84
2023/10/21 09:18:11;;;;;;;;;;;14.10;61.10;;;13.02;61.64;99275.63;12257914;19;19931;-84
2023/10/21 09:22:21;;;;;;;;;;;14.30;61.20;;;13.07;61.60;99279.47;12260888;19;19923;-83
2023/10/21 09:26:31;;;;;;;;;;;14.40;61.50;;;13.29;61.68;99293.31;12261026;19;20283;-84
2023/10/21 09:30:33;;;;;;;;;;;14.50;61.40;;;13.38;61.75;99292.50;12267202;19;19931;-84
2023/10/21 09:34:34;;;;;;;;;;;14.70;62.30;;;13.24;61.64;99257.00;12263807;19;19914;-84
2023/10/21 09:38:37;;;;;;;;;;;14.80;62.90;;;13.65;61.70;99307.53;12255893;19;19975;-85
2023/10/21 09:42:42;;;;;;;;;;;14.90;62.20;;;13.68;61.71;99298.53;12255588;19;20334;-84
2023/10/21 09:46:45;;;;;;;;;;;15.00;61.90;;;13.71;61.59;99291.22;12258040;19;19933;-85
2023/10/21 09:50:51;;;;;;;;;;;15.20;62.40;;;13.97;61.79;99324.75;12263767;19;20326;-84
2023/10/21 09:54:57;;;;;;;;;;;15.30;62.00;;;14.02;61.71;99317.28;12280954;19;19926;-85
2023/10/21 09:59:00;;;;;;;;;;;15.40;62.70;;;14.19;61.78;99333.28;12269352;19;19915;-84
2023/10/21 10:03:01;;;;;;;;;;;15.50;64.00;;;14.33;61.81;99335.44;12267017;19;19915;-84
2023/10/21 10:07:06;;;;;;;;;;;15.60;65.40;;;14.45;61.60;99336.09;12267088;19;19948;-84
2023/10/21 10:11:13;;;;;;;;;;;15.70;64.90;;;14.51;61.70;99320.59;12261476;19;20282;-85
2023/10/21 10:15:40;;;;;;;;;;;15.80;64.80;;;14.69;61.71;99328.56;12266864;19;19919;-85
2023/10/21 10:19:42;;;;;;;;;;;16.00;63.70;;;14.83;61.84;99332.50;12263327;19;19931;-84
2023/10/21 10:23:50;;;;;;;;;;;16.10;63.40;;;14.91;61.59;99327.34;12266423;19;19919;-83
2023/10/21 10:28:21;;;;;;;;;;;16.20;64.20;;;15.08;61.95;99319.63;12263366;19;20017;-84
2023/10/21 10:32:25;;;;;;;;;;;16.40;64.80;;;15.28;62.04;99326.41;12252002;19;19922;-85
2023/10/21 10:36:30;;;;;;;;;;;16.60;65.50;;;15.48;62.05;99327.91;12253396;19;19926;-86
2023/10/21 10:40:38;;;;;;;;;;;16.80;65.30;;;15.69;62.00;99324.19;12250465;19;19915;-87
2023/10/21 10:44:42;;;;;;;;;;;17.00;66.10;;;15.96;62.03;99325.88;12251202;19;19915;-85
2023/10/21 10:48:43;;;;;;;;;;;17.30;66.80;;;16.04;61.96;99307.50;12249779;19;19934;-86
2023/10/21 10:52:46;;;;;;;;;;;17.50;66.30;;;16.43;62.10;99349.22;12252912;19;19911;-85
2023/10/21 10:56:49;;;;;;;;;;;17.80;65.10;;;16.63;62.07;99349.78;12252986;19;19919;-85
2023/10/21 11:00:52;;;;;;;;;;;18.00;64.50;;;16.85;62.09;99360.81;12248134;19;20290;-85
2023/10/21 11:04:59;;;;;;;;;;;18.20;63.70;;;16.90;62.22;99355.88;12251333;19;20366;-84
2023/10/21 11:09:04;;;;;;;;;;;18.40;64.40;;;17.14;62.00;99374.41;12254002;19;19918;-84
2023/10/21 11:13:05;;;;;;;;;;;18.50;63.80;;;17.27;62.09;99378.44;12261492;19;19911;-83
2023/10/21 11:17:07;;;;;;;;;;;18.70;63.30;;;17.44;61.98;99388.88;12267907;19;19930;-83
2023/10/21 11:21:09;;;;;;;;;;;18.80;63.20;;;17.45;61.94;99372.03;12258468;19;20254;-85
2023/10/21 11:25:11;;;;;;;;;;;18.90;62.90;;;17.69;62.08;99397.66;12262321;19;19932;-84
2023/10/21 11:29:13;;;;;;;;;;;19.10;62.40;;;17.76;62.07;99381.13;12257047;19;20380;-83
2023/10/21 11:33:16;;;;;;;;;;;19.20;61.90;;;17.74;61.88;99360.19;12261474;19;19972;-84
2023/10/21 11:37:21;;;;;;;;;;;19.40;61.30;;;18.13;62.04;99410.56;12263149;19;19926;-84
2023/10/21 11:41:22;;;;;;;;;;;19.60;61.40;;;18.16;61.77;99384.81;12265900;19;19926;-85
2023/10/21 11:45:28;;;;;;;;;;;19.70;61.10;;;18.53;61.83;99429.19;12258875;19;19914;-85
2023/10/21 11:49:37;;;;;;;;;;;19.80;60.20;;;18.59;61.83;99412.66;12244932;19;20444;-84
2023/10/21 11:53:40;;;;;;;;;;;20.00;60.20;;;18.80;61.80;99451.81;12247664;19;19914;-85
2023/10/21 12:15:03;;;;;;;;;;;20.60;58.60;;;19.37;61.33;99475.44;12248737;19;20369;-85
2023/10/21 12:40:35;;;;;;;;;;;21.10;57.70;;;19.83;61.55;99528.53;12244760;19;20357;-85
2023/10/21 12:44:44;;;;;;;;;;;21.10;56.70;;;19.83;61.19;99517.94;12247714;19;19925;-85
2023/10/21 12:48:52;;;;;;;;;;;21.20;57.90;;;19.94;61.01;99539.75;12257721;19;19947;-85
2023/10/21 12:52:53;;;;;;;;;;;21.20;58.10;;;19.93;60.90;99541.56;12266704;19;19922;-86
2023/10/21 12:56:55;;;;;;;;;;;21.30;58.20;;;20.01;61.21;99551.28;12274841;19;19910;-85
2023/10/21 13:00:57;;;;;;;;;;;21.30;58.20;;;19.99;61.25;99550.66;12254063;19;19944;-86
2023/10/21 13:05:00;;;;;;;;;;;21.30;57.90;;;19.95;61.16;99559.94;12258726;19;19930;-85
2023/10/21 13:09:20;;;;;;;;;;;21.30;58.00;;;19.93;60.99;99561.94;12265014;19;19982;-85
2023/10/21 13:13:21;;;;;;;;;;;21.30;57.90;;;19.92;60.95;99565.59;12268152;19;19930;-85
2023/10/21 13:17:23;;;;;;;;;;;21.30;57.70;;;19.98;60.68;99589.59;12259757;19;19926;-87
2023/10/21 13:21:24;;;;;;;;;;;21.30;57.50;;;19.96;60.90;99591.56;12250103;19;19919;-85
2023/10/21 13:25:25;;;;;;;;;;;21.20;57.70;;;19.91;60.90;99587.78;12278591;19;19934;-85
2023/10/21 13:29:27;;;;;;;;;;;21.20;57.50;;;19.96;60.83;99598.72;12277703;19;19947;-85
2023/10/21 13:33:29;;;;;;;;;;;21.20;57.60;;;20.03;60.79;99603.13;12292207;19;19915;-82
2023/10/21 13:37:32;;;;;;;;;;;21.20;57.60;;;20.05;60.92;99621.50;12289384;19;19953;-85
2023/10/21 13:41:34;;;;;;;;;;;21.20;57.70;;;19.99;60.62;99622.22;12291723;19;19923;-85
2023/10/21 13:45:35;;;;;;;;;;;21.20;57.40;;;20.04;60.78;99636.59;12288159;19;19939;-85
2023/10/21 13:49:40;;;;;;;;;;;21.20;57.60;;;19.97;60.75;99632.16;12286408;19;19918;-83
2023/10/21 13:53:42;;;;;;;;;;;21.20;57.80;;;20.03;60.89;99644.69;12278251;19;19935;-85
2023/10/21 13:57:45;;;;;;;;;;;21.20;58.00;;;20.02;60.39;99654.47;12286407;19;20402;-84
2023/10/21 14:01:46;;;;;;;;;;;21.20;58.00;;;20.04;60.48;99652.50;12289865;19;19919;-85
2023/10/21 14:05:50;;;;;;;;;;;21.20;57.60;;;19.98;60.54;99641.72;12286893;19;19982;-84
2023/10/21 14:09:52;;;;;;;;;;;21.20;57.80;;;19.96;60.57;99649.06;12282812;19;19922;-86
2023/10/21 14:13:53;;;;;;;;;;;21.20;58.00;;;20.06;60.36;99676.16;12286608;19;19950;-85
2023/10/21 14:17:55;;;;;;;;;;;21.20;57.90;;;20.09;60.38;99674.00;12283807;19;20220;-83
2023/10/21 14:21:56;;;;;;;;;;;21.20;57.50;;;20.03;60.67;99672.03;12285669;19;19926;-83
2023/10/21 14:25:59;;;;;;;;;;;21.20;57.80;;;20.11;60.54;99676.47;12285188;19;19930;-84
2023/10/21 14:30:09;;;;;;;;;;;21.20;57.80;;;20.02;60.64;99665.06;12278312;19;20281;-86
2023/10/21 14:34:11;;;;;;;;;;;21.20;56.30;;;20.06;60.29;99660.25;12283098;19;19934;-85
2023/10/21 14:38:13;;;;;;;;;;;21.30;56.80;;;20.05;60.02;99658.59;12281530;19;19919;-85
2023/10/21 14:42:16;;;;;;;;;;;21.30;57.00;;;19.96;60.01;99652.53;12272074;19;19999;-85
2023/10/21 14:46:17;;;;;;;;;;;21.30;57.20;;;20.19;60.01;99686.22;12280385;19;19931;-85
2023/10/21 14:50:18;;;;;;;;;;;21.30;57.10;;;20.21;60.12;99708.91;12281871;19;19915;-87
2023/10/21 14:54:20;;;;;;;;;;;21.30;57.00;;;20.05;60.15;99682.47;12274334;19;19923;-85
2023/10/21 14:58:25;;;;;;;;;;;21.30;57.10;;;20.16;60.10;99707.78;12270976;19;20309;-85
2023/10/21 15:02:27;;;;;;;;;;;21.30;57.40;;;20.16;59.90;99723.69;12273567;19;20334;-85
2023/10/21 15:06:28;;;;;;;;;;;21.30;57.40;;;20.14;60.17;99729.13;12274156;19;19926;-85
2023/10/21 15:10:30;;;;;;;;;;;21.20;57.30;;;20.05;59.71;99722.22;12269820;19;19934;-85
2023/10/21 15:14:31;;;;;;;;;;;21.20;57.40;;;19.76;60.08;99683.06;12271669;19;19911;-86
2023/10/21 15:18:32;;;;;;;;;;;21.10;57.40;;;19.95;59.68;99726.88;12275286;19;19919;-85
2023/10/21 15:22:34;;;;;;;;;;;21.10;57.30;;;19.96;60.00;99745.28;12273185;19;20259;-85
2023/10/21 15:26:36;;;;;;;;;;;21.00;57.50;;;19.86;60.03;99744.63;12273352;19;19925;-84
2023/10/21 15:30:37;;;;;;;;;;;20.90;57.50;;;19.87;59.71;99756.88;12267537;19;19938;-86
2023/10/21 15:34:39;;;;;;;;;;;20.90;57.60;;;19.71;59.67;99746.31;12273184;19;19915;-86
2023/10/21 15:38:41;;;;;;;;;;;20.80;57.60;;;19.77;59.49;99769.50;12270720;19;19939;-85
2023/10/21 15:42:43;;;;;;;;;;;20.80;57.70;;;19.42;59.71;99726.47;12272599;19;19954;-86
2023/10/21 15:46:44;;;;;;;;;;;20.70;57.70;;;19.64;59.42;99786.69;12268307;19;19919;-85
2023/10/21 15:50:45;;;;;;;;;;;20.70;57.60;;;19.54;59.55;99782.56;12270280;19;19955;-85
2023/10/21 15:54:47;;;;;;;;;;;20.60;57.60;;;19.41;59.73;99778.56;12268446;19;19929;-86
2023/10/21 15:58:48;;;;;;;;;;;20.50;57.60;;;19.32;59.66;99790.16;12270050;19;19930;-85
2023/10/21 16:02:50;;;;;;;;;;;20.40;57.50;;;19.25;59.47;99810.31;12272518;19;19943;-85
2023/10/21 16:07:00;;;;;;;;;;;20.20;57.40;;;19.02;59.13;99795.06;12314126;19;19937;-85
2023/10/21 16:11:04;;;;;;;;;;;20.10;57.40;;;19.03;59.40;99806.47;12330482;19;20345;-84
2023/10/21 16:15:06;;;;;;;;;;;20.00;57.50;;;18.82;59.25;99798.97;12332361;19;20414;-85
2023/10/21 16:19:08;;;;;;;;;;;19.90;57.50;;;18.78;59.42;99809.06;12330808;19;19942;-85
2023/10/21 16:23:10;;;;;;;;;;;19.80;57.50;;;18.75;59.40;99827.91;12322437;19;19999;-84
2023/10/21 16:27:11;;;;;;;;;;;19.70;57.50;;;18.63;59.48;99833.59;12328138;19;19986;-85
2023/10/21 16:31:13;;;;;;;;;;;19.60;57.50;;;18.34;59.24;99795.97;12323149;19;19926;-84
2023/10/21 16:35:14;;;;;;;;;;;19.50;57.60;;;18.44;59.46;99837.31;12323190;19;19922;-84
2023/10/21 16:39:15;;;;;;;;;;;19.40;57.50;;;18.27;59.25;99825.81;12325857;19;19929;-85
2023/10/21 16:43:17;;;;;;;;;;;19.30;57.50;;;18.30;59.22;99857.22;12325765;19;19931;-86
2023/10/21 16:47:19;;;;;;;;;;;19.20;57.50;;;18.18;59.26;99851.38;12325856;19;19923;-85
2023/10/21 16:51:21;;;;;;;;;;;19.10;57.60;;;18.07;59.36;99841.06;12322208;19;19991;-84
2023/10/21 16:55:23;;;;;;;;;;;19.00;57.60;;;17.96;59.38;99828.94;12323022;19;19922;-85
2023/10/21 16:59:24;;;;;;;;;;;18.90;57.60;;;17.92;59.15;99838.13;12322663;19;19982;-84
2023/10/21 17:03:25;;;;;;;;;;;18.80;57.60;;;17.90;59.12;99861.22;12322307;19;19911;-84
2023/10/21 17:07:28;;;;;;;;;;;18.70;57.60;;;17.75;59.23;99846.91;12321563;19;19986;-84
2023/10/21 17:11:30;;;;;;;;;;;18.60;57.60;;;17.60;59.25;99834.22;12321590;19;19910;-84
2023/10/21 17:15:31;;;;;;;;;;;18.60;57.60;;;17.60;59.14;99868.53;12304309;19;19970;-84
2023/10/21 17:19:33;;;;;;;;;;;18.50;57.50;;;17.53;59.14;99877.25;12272097;19;19907;-85
2023/10/21 17:23:35;;;;;;;;;;;18.40;57.50;;;17.50;59.33;99890.72;12270728;19;19923;-84
2023/10/21 17:27:36;;;;;;;;;;;18.30;57.50;;;17.38;59.27;99884.84;12276396;19;19986;-85
2023/10/21 17:31:38;;;;;;;;;;;18.20;57.60;;;17.34;59.32;99892.22;12274964;19;19919;-84
2023/10/21 17:35:39;;;;;;;;;;;18.10;57.60;;;17.05;59.33;99871.28;12274300;19;19930;-85
2023/10/21 17:39:42;;;;;;;;;;;18.10;57.60;;;17.15;59.04;99914.28;12271097;19;19922;-84
2023/10/21 17:43:43;;;;;;;;;;;18.00;57.60;;;17.12;59.19;99933.03;12271492;19;20553;-85
2023/10/21 17:47:45;;;;;;;;;;;17.90;57.50;;;16.98;59.25;99934.34;12274020;19;19929;-85
2023/10/21 17:51:48;;;;;;;;;;;17.90;57.50;;;17.02;59.32;99951.53;12277381;19;19927;-84
2023/10/21 17:55:49;;;;;;;;;;;17.80;57.50;;;16.92;59.06;99950.75;12273428;19;19926;-85
2023/10/21 17:59:50;;;;;;;;;;;17.70;57.50;;;16.86;59.24;99966.34;12269419;19;19926;-84
2023/10/21 18:03:52;;;;;;;;;;;17.60;57.50;;;16.66;59.01;99954.97;12271151;19;19923;-84
2023/10/21 18:07:54;;;;;;;;;;;17.60;57.60;;;16.62;59.17;99957.06;12271700;19;19922;-85
2023/10/21 18:11:55;;;;;;;;;;;17.50;57.50;;;16.53;59.10;99950.03;12273801;19;19926;-84
2023/10/21 18:15:57;;;;;;;;;;;17.40;57.40;;;16.53;59.11;99960.56;12279800;19;19926;-85
2023/10/21 18:19:58;;;;;;;;;;;17.30;57.40;;;16.38;59.01;99947.81;12272528;19;19907;-84
2023/10/21 18:24:00;;;;;;;;;;;17.30;57.50;;;16.38;59.35;99974.16;12273520;19;19931;-84
2023/10/21 18:28:01;;;;;;;;;;;17.30;57.50;;;16.32;59.22;99977.38;12269170;19;20798;-85
2023/10/21 18:32:03;;;;;;;;;;;17.10;57.50;;;16.28;59.27;99997.06;12276422;19;19926;-84
2023/10/21 18:36:05;;;;;;;;;;;17.10;57.50;;;16.18;58.94;100003.31;12272321;19;20262;-85
2023/10/21 18:40:08;;;;;;;;;;;17.00;57.50;;;16.18;59.06;100025.22;12270353;19;19974;-85
2023/10/21 18:44:09;;;;;;;;;;;17.00;57.60;;;16.09;59.08;100024.25;12269709;19;19907;-84
2023/10/21 18:48:13;;;;;;;;;;;17.00;57.60;;;16.12;59.18;100046.81;12268167;19;19947;-85
2023/10/21 18:52:19;;;;;;;;;;;16.90;57.60;;;15.86;59.19;100023.66;12269241;19;20329;-84
2023/10/21 18:56:20;;;;;;;;;;;16.90;57.60;;;15.97;59.20;100048.19;12268332;19;19918;-85
2023/10/21 19:00:22;;;;;;;;;;;16.90;57.60;;;15.72;59.13;100016.16;12268126;19;20322;-85